Crescent Springs, Kentucky
Current Conditions -  °F | °C
As of 7:37 PM on Tuesday 25 Nov 2014 (Local Time) from KI69 Reporting Station
Clear Clear  
Wind Chill: 34°   Ceiling: Unl
Heat Index: 37°   Visibility: 10mi
Dew Point: 32°   Wind: 5mph
Humidity: 81%   Direction: 360°N
Pressure: 30.15"   Gusts: NA
Location:  39.0279°N, 84.5635°W
Report Text: KI69 260037Z AUTO 36004KT 10SM CLR 03/00 A3015 RMK AO1
Loading
Personal Weather Stations






























Interactive Weather Map New forecast layout! Learn more

10-Day Weather Forecast

Advertisements
Track Severe Weather on mobile